createdAt,value
2022-09-09T00:01:05.168Z,22.52
2022-09-09T00:02:23.072Z,22.51
2022-09-09T00:03:39.589Z,22.51
2022-09-09T00:04:55.960Z,22.51
2022-09-09T00:06:12.323Z,22.51
2022-09-09T00:07:29.049Z,22.53
2022-09-09T00:08:45.420Z,22.52
2022-09-09T00:10:01.791Z,22.53
2022-09-09T00:11:18.170Z,22.54
2022-09-09T00:12:38.862Z,22.54
2022-09-09T00:13:55.225Z,22.55
2022-09-09T00:15:11.605Z,22.56
2022-09-09T00:16:27.970Z,22.57
2022-09-09T00:17:44.373Z,22.56
2022-09-09T00:19:00.737Z,22.57
2022-09-09T00:20:17.417Z,22.57
2022-09-09T00:21:33.777Z,22.56
2022-09-09T00:22:50.162Z,22.57
2022-09-09T00:24:06.533Z,22.55
2022-09-09T00:25:22.903Z,22.56
2022-09-09T00:26:39.577Z,22.55
2022-09-09T00:27:55.956Z,22.54
2022-09-09T00:29:13.162Z,22.54
2022-09-09T00:30:29.549Z,22.53
2022-09-09T00:31:46.013Z,22.51
2022-09-09T00:33:02.658Z,22.50
2022-09-09T00:34:20.489Z,22.50
2022-09-09T00:35:38.314Z,22.47
2022-09-09T00:36:54.701Z,22.47
2022-09-09T00:38:11.093Z,22.47
2022-09-09T00:39:27.720Z,22.47
2022-09-09T00:40:44.109Z,22.46
2022-09-09T00:42:00.520Z,22.45
2022-09-09T00:43:16.892Z,22.45
2022-09-09T00:44:33.265Z,22.43
2022-09-09T00:45:49.934Z,22.43
2022-09-09T00:47:06.330Z,22.41
2022-09-09T00:48:22.693Z,22.40
2022-09-09T00:49:39.093Z,22.39
2022-09-09T00:50:55.464Z,22.39
2022-09-09T00:52:12.144Z,22.37
2022-09-09T00:53:28.525Z,22.37
2022-09-09T00:54:46.326Z,22.35
2022-09-09T00:56:02.706Z,22.35
2022-09-09T00:57:19.098Z,22.35
2022-09-09T00:58:35.891Z,22.33
2022-09-09T00:59:52.307Z,22.33
2022-09-09T01:01:08.805Z,22.30
2022-09-09T01:02:25.331Z,22.29
2022-09-09T01:03:41.669Z,22.29
2022-09-09T01:04:58.312Z,22.27
2022-09-09T01:06:14.696Z,22.26
2022-09-09T01:07:31.106Z,22.25
2022-09-09T01:08:47.474Z,22.23
2022-09-09T01:10:03.833Z,22.21
2022-09-09T01:11:20.553Z,22.20
2022-09-09T01:12:36.912Z,22.18
2022-09-09T01:13:53.284Z,22.16
2022-09-09T01:15:09.681Z,22.13
2022-09-09T01:16:26.106Z,22.11
2022-09-09T01:17:42.717Z,22.08
2022-09-09T01:18:59.111Z,22.04
2022-09-09T01:20:15.457Z,22.01
2022-09-09T01:21:33.325Z,21.97
2022-09-09T01:22:49.686Z,21.94
2022-09-09T01:24:06.337Z,21.90
2022-09-09T01:25:22.748Z,21.88
2022-09-09T01:26:39.120Z,21.83
2022-09-09T01:27:55.498Z,21.80
2022-09-09T01:29:11.871Z,21.79
2022-09-09T01:30:28.641Z,21.78
2022-09-09T01:31:45.001Z,21.76
2022-09-09T01:33:01.394Z,21.76
2022-09-09T01:34:17.762Z,21.76
2022-09-09T01:35:34.180Z,21.77
2022-09-09T01:36:50.839Z,21.76
2022-09-09T01:38:07.234Z,21.77
2022-09-09T01:39:23.602Z,21.77
2022-09-09T01:40:40.006Z,21.78
2022-09-09T01:41:56.373Z,21.77
2022-09-09T01:43:13.034Z,21.78
2022-09-09T01:44:29.417Z,21.79
2022-09-09T01:45:45.904Z,21.78
2022-09-09T01:47:02.281Z,21.79
2022-09-09T01:48:18.666Z,21.79
2022-09-09T01:49:35.325Z,21.80
2022-09-09T01:50:51.717Z,21.80
2022-09-09T01:52:08.097Z,21.81
2022-09-09T01:53:24.457Z,21.82
2022-09-09T01:54:41.787Z,21.82
2022-09-09T01:55:58.464Z,21.82
2022-09-09T01:57:14.837Z,21.81
2022-09-09T01:58:31.196Z,21.79
2022-09-09T01:59:47.557Z,21.78
2022-09-09T02:01:03.985Z,21.77
2022-09-09T02:02:20.665Z,21.78
2022-09-09T02:03:37.020Z,21.77
2022-09-09T02:04:54.848Z,21.78
2022-09-09T02:06:11.270Z,21.76
2022-09-09T02:07:27.649Z,21.76
2022-09-09T02:08:44.341Z,21.75
2022-09-09T02:10:00.714Z,21.73
2022-09-09T02:11:18.550Z,21.73
2022-09-09T02:12:34.905Z,21.73
2022-09-09T02:13:51.316Z,21.71
2022-09-09T02:15:07.966Z,21.71
2022-09-09T02:16:24.443Z,21.71
2022-09-09T02:17:40.809Z,21.71
2022-09-09T02:18:57.200Z,21.72
2022-09-09T02:20:13.554Z,21.71
2022-09-09T02:21:30.206Z,21.70
2022-09-09T02:22:46.608Z,21.70
2022-09-09T02:24:03.057Z,21.71
2022-09-09T02:25:19.426Z,21.71
2022-09-09T02:26:35.811Z,21.71
2022-09-09T02:27:52.441Z,21.72
2022-09-09T02:29:08.852Z,21.72
2022-09-09T02:30:25.236Z,21.71
2022-09-09T02:31:43.069Z,21.70
2022-09-09T02:32:59.438Z,21.70
2022-09-09T02:34:16.103Z,21.70
2022-09-09T02:35:33.960Z,21.72
2022-09-09T02:36:50.330Z,21.73
2022-09-09T02:38:06.688Z,21.75
2022-09-09T02:39:23.102Z,21.75
2022-09-09T02:40:39.731Z,21.73
2022-09-09T02:41:56.110Z,21.77
2022-09-09T02:43:12.464Z,21.76
2022-09-09T02:44:28.883Z,21.76
2022-09-09T02:45:45.304Z,21.77
2022-09-09T02:47:01.960Z,21.77
2022-09-09T02:48:18.314Z,21.76
2022-09-09T02:49:34.714Z,21.76
2022-09-09T02:50:51.074Z,21.76
2022-09-09T02:52:07.439Z,21.75
2022-09-09T02:53:24.076Z,21.76
2022-09-09T02:54:40.485Z,21.76
2022-09-09T02:55:56.869Z,21.78
2022-09-09T02:57:13.257Z,21.78
2022-09-09T02:58:29.667Z,21.80
2022-09-09T02:59:46.318Z,21.81
2022-09-09T03:01:02.735Z,21.81
2022-09-09T03:02:19.100Z,21.81
2022-09-09T03:03:35.447Z,21.80
2022-09-09T03:04:51.887Z,21.81
2022-09-09T03:06:08.493Z,21.79
2022-09-09T03:07:24.856Z,21.81
2022-09-09T03:08:43.426Z,21.81
2022-09-09T03:10:02.463Z,21.81
2022-09-09T03:11:18.825Z,21.81
2022-09-09T03:12:35.528Z,21.82
2022-09-09T03:13:51.890Z,21.83
2022-09-09T03:15:08.292Z,21.83
2022-09-09T03:16:24.728Z,21.84
2022-09-09T03:17:41.133Z,21.83
2022-09-09T03:18:57.774Z,21.83
2022-09-09T03:20:14.173Z,21.81
2022-09-09T03:21:30.535Z,21.80
2022-09-09T03:22:46.919Z,21.77
2022-09-09T03:24:04.237Z,21.76
2022-09-09T03:25:20.966Z,21.77
2022-09-09T03:26:37.328Z,21.76
2022-09-09T03:27:53.700Z,21.77
2022-09-09T03:29:10.077Z,21.77
2022-09-09T03:30:26.480Z,21.78
2022-09-09T03:31:43.184Z,21.77
2022-09-09T03:32:59.536Z,21.77
2022-09-09T03:34:15.892Z,21.76
2022-09-09T03:35:36.255Z,21.76
2022-09-09T03:36:52.623Z,21.76
2022-09-09T03:38:10.225Z,21.76
2022-09-09T03:39:26.579Z,21.76
2022-09-09T03:40:43.065Z,21.76
2022-09-09T03:42:00.884Z,21.76
2022-09-09T03:43:17.264Z,21.78
2022-09-09T03:44:33.905Z,21.78
2022-09-09T03:45:50.422Z,21.78
2022-09-09T03:47:06.789Z,21.79
2022-09-09T03:48:24.606Z,21.79
2022-09-09T03:49:40.979Z,21.81
2022-09-09T03:50:57.647Z,21.83
2022-09-09T03:52:14.018Z,21.83
2022-09-09T03:53:31.846Z,21.82
2022-09-09T03:54:48.226Z,21.82
2022-09-09T03:56:06.077Z,21.81
2022-09-09T03:57:22.735Z,21.82
2022-09-09T03:58:39.139Z,21.81
2022-09-09T03:59:56.960Z,21.79
2022-09-09T04:01:15.147Z,21.79
2022-09-09T04:02:31.558Z,21.79
2022-09-09T04:03:48.210Z,21.78
2022-09-09T04:05:04.574Z,21.79
2022-09-09T04:06:20.981Z,21.80
2022-09-09T04:07:37.357Z,21.79
2022-09-09T04:08:55.182Z,21.80
2022-09-09T04:10:11.823Z,21.79
2022-09-09T04:11:28.234Z,21.77
2022-09-09T04:12:47.786Z,21.78
2022-09-09T04:14:05.805Z,21.77
2022-09-09T04:15:22.154Z,21.76
2022-09-09T04:16:38.894Z,21.75
2022-09-09T04:17:55.246Z,21.76
2022-09-09T04:19:13.085Z,21.73
2022-09-09T04:20:30.906Z,21.73
2022-09-09T04:21:47.317Z,21.73
2022-09-09T04:23:03.956Z,21.72
2022-09-09T04:24:20.335Z,21.75
2022-09-09T04:25:38.159Z,21.73
2022-09-09T04:26:56.038Z,21.73
2022-09-09T04:28:13.338Z,21.72
2022-09-09T04:29:29.999Z,21.72
2022-09-09T04:30:46.473Z,21.72
2022-09-09T04:32:04.346Z,21.72
2022-09-09T04:33:22.123Z,21.72
2022-09-09T04:34:56.398Z,21.75
2022-09-09T04:36:14.761Z,21.77
2022-09-09T04:37:32.602Z,21.78
2022-09-09T04:38:50.455Z,21.79
2022-09-09T04:40:08.351Z,21.81
2022-09-09T04:41:24.991Z,21.81
2022-09-09T04:42:42.833Z,21.81
2022-09-09T04:44:00.685Z,21.80
2022-09-09T04:45:18.572Z,21.80
2022-09-09T04:46:36.416Z,21.77
2022-09-09T04:47:54.027Z,21.76
2022-09-09T04:49:15.066Z,21.76
2022-09-09T04:50:35.715Z,21.73
2022-09-09T04:51:53.025Z,21.71
2022-09-09T04:53:10.906Z,21.70
2022-09-09T04:54:29.266Z,21.69
2022-09-09T04:55:47.126Z,21.68
2022-09-09T04:57:04.957Z,21.68
2022-09-09T04:58:22.818Z,21.68
2022-09-09T04:59:40.919Z,21.68
2022-09-09T05:00:58.784Z,21.68
2022-09-09T05:02:16.142Z,21.68
2022-09-09T05:03:33.370Z,21.67
2022-09-09T05:04:51.280Z,21.67
2022-09-09T05:06:08.591Z,21.67
2022-09-09T05:07:26.419Z,21.66
2022-09-09T05:08:44.261Z,21.67
2022-09-09T05:10:02.144Z,21.68
2022-09-09T05:11:19.764Z,21.69
2022-09-09T05:12:37.621Z,21.68
2022-09-09T05:13:56.456Z,21.68
2022-09-09T05:15:14.320Z,21.70
2022-09-09T05:16:32.316Z,21.73
2022-09-09T05:17:49.937Z,21.73
2022-09-09T05:19:07.813Z,21.72
2022-09-09T05:20:25.706Z,21.72
2022-09-09T05:21:44.116Z,21.71
2022-09-09T05:23:01.955Z,21.70
2022-09-09T05:24:20.595Z,21.70
2022-09-09T05:25:38.926Z,21.70
2022-09-09T05:26:56.827Z,21.71
2022-09-09T05:28:14.667Z,21.72
2022-09-09T05:29:33.038Z,21.71
2022-09-09T05:30:51.767Z,21.70
2022-09-09T05:32:14.779Z,21.68
2022-09-09T05:33:32.222Z,21.70
2022-09-09T05:34:50.079Z,21.69
2022-09-09T05:36:07.989Z,21.68
2022-09-09T05:37:25.899Z,21.68
2022-09-09T05:38:43.839Z,21.68
2022-09-09T05:40:01.860Z,21.68
2022-09-09T05:41:19.836Z,21.67
2022-09-09T05:42:36.722Z,21.68
2022-09-09T05:43:54.718Z,21.70
2022-09-09T05:45:15.105Z,21.70
2022-09-09T05:46:32.483Z,21.70
2022-09-09T05:47:50.405Z,21.71
2022-09-09T05:49:07.816Z,21.70
2022-09-09T05:50:29.768Z,21.71
2022-09-09T05:51:48.330Z,21.73
2022-09-09T05:53:06.964Z,21.76
2022-09-09T05:54:24.884Z,21.75
2022-09-09T05:55:43.333Z,21.79
2022-09-09T05:57:01.801Z,21.80
2022-09-09T05:58:19.702Z,21.81
2022-09-09T05:59:38.393Z,21.84
2022-09-09T06:00:56.211Z,21.86
2022-09-09T06:02:14.681Z,21.87
2022-09-09T06:03:32.773Z,21.88
2022-09-09T06:04:50.211Z,21.90
2022-09-09T06:06:07.674Z,21.91
2022-09-09T06:07:25.573Z,21.89
2022-09-09T06:08:44.949Z,21.89
2022-09-09T06:10:02.895Z,21.91
2022-09-09T06:11:21.334Z,21.92
2022-09-09T06:12:39.744Z,21.92
2022-09-09T06:13:57.495Z,21.93
2022-09-09T06:15:16.368Z,21.94
2022-09-09T06:16:34.826Z,21.95
2022-09-09T06:17:53.197Z,21.95
2022-09-09T06:19:11.116Z,21.98
2022-09-09T06:20:29.466Z,21.98
2022-09-09T06:21:47.621Z,22.00
2022-09-09T06:23:06.027Z,22.01
2022-09-09T06:24:24.382Z,22.01
2022-09-09T06:25:41.759Z,22.02
2022-09-09T06:27:00.189Z,22.04
2022-09-09T06:28:18.798Z,22.06
2022-09-09T06:29:36.194Z,22.09
2022-09-09T06:30:53.707Z,22.11
2022-09-09T06:32:11.119Z,22.13
2022-09-09T06:33:27.716Z,22.14
2022-09-09T06:34:46.455Z,22.18
2022-09-09T06:36:04.846Z,22.19
2022-09-09T06:37:22.335Z,22.23
2022-09-09T06:38:39.731Z,22.24
2022-09-09T06:39:57.245Z,22.26
2022-09-09T06:41:15.695Z,22.25
2022-09-09T06:42:33.097Z,22.26
2022-09-09T06:43:51.441Z,22.26
2022-09-09T06:45:11.003Z,22.25
2022-09-09T06:46:28.750Z,22.25
2022-09-09T06:47:46.254Z,22.25
2022-09-09T06:50:55.176Z,22.23
2022-09-09T06:52:13.566Z,22.23
2022-09-09T06:53:31.427Z,22.24
2022-09-09T06:54:49.376Z,22.25
2022-09-09T06:56:07.924Z,22.27
2022-09-09T06:57:36.818Z,22.28
2022-09-09T06:58:49.070Z,22.30
2022-09-09T07:00:07.508Z,22.30
2022-09-09T07:01:26.053Z,22.29
2022-09-09T07:02:43.993Z,22.30
2022-09-09T07:04:01.389Z,22.31
2022-09-09T07:05:18.822Z,22.33
2022-09-09T07:06:36.733Z,22.34
2022-09-09T07:07:55.450Z,22.35
2022-09-09T07:09:13.355Z,22.36
2022-09-09T07:10:30.889Z,22.37
2022-09-09T07:11:48.297Z,22.39
2022-09-09T07:13:06.367Z,22.40
2022-09-09T07:14:25.554Z,22.43
2022-09-09T07:15:43.271Z,22.44
2022-09-09T07:17:02.717Z,22.46
2022-09-09T07:18:22.176Z,22.49
2022-09-09T07:19:40.697Z,22.52
2022-09-09T07:20:59.366Z,22.54
2022-09-09T07:22:16.727Z,22.53
2022-09-09T07:23:36.374Z,22.53
2022-09-09T07:24:54.963Z,22.53
2022-09-09T07:26:13.358Z,22.53
2022-09-09T07:27:32.478Z,22.53
2022-09-09T07:28:50.894Z,22.53
2022-09-09T07:30:10.472Z,22.54
2022-09-09T07:31:29.507Z,22.55
2022-09-09T07:32:47.374Z,22.56
2022-09-09T07:34:05.990Z,22.56
2022-09-09T07:35:25.452Z,22.58
2022-09-09T07:36:44.867Z,22.59
2022-09-09T07:38:02.740Z,22.61
2022-09-09T07:39:21.706Z,22.64
2022-09-09T07:40:40.410Z,22.65
2022-09-09T07:41:58.380Z,22.68
2022-09-09T07:43:17.427Z,22.72
2022-09-09T07:44:36.768Z,22.76
2022-09-09T07:45:54.657Z,22.83
2022-09-09T07:47:13.347Z,22.95
2022-09-09T07:48:31.573Z,23.20
2022-09-09T07:49:49.479Z,23.37
2022-09-09T07:51:07.739Z,23.37
2022-09-09T07:52:25.533Z,23.43
2022-09-09T07:53:44.818Z,23.58
2022-09-09T07:55:03.410Z,23.74
2022-09-09T07:56:22.963Z,23.91
2022-09-09T07:57:42.385Z,24.09
2022-09-09T07:58:59.834Z,24.09
2022-09-09T08:00:18.462Z,24.16
2022-09-09T08:01:36.356Z,24.17
2022-09-09T08:02:54.291Z,24.15
2022-09-09T08:04:12.711Z,24.21
2022-09-09T08:05:31.107Z,24.34
2022-09-09T08:06:49.097Z,24.53
2022-09-09T08:08:08.220Z,24.72
2022-09-09T08:09:27.096Z,24.85
2022-09-09T08:10:44.446Z,24.88
2022-09-09T08:12:03.175Z,24.98
2022-09-09T08:13:22.908Z,24.95
2022-09-09T08:14:41.327Z,24.93
2022-09-09T08:16:00.227Z,24.96
2022-09-09T08:17:18.747Z,24.99
2022-09-09T08:18:36.373Z,25.03
2022-09-09T08:19:54.241Z,25.05
2022-09-09T08:21:12.262Z,25.06
2022-09-09T08:22:28.852Z,25.03
2022-09-09T08:23:47.253Z,25.00
2022-09-09T08:25:05.881Z,24.98
2022-09-09T08:26:23.768Z,24.99
2022-09-09T08:27:42.183Z,25.03
2022-09-09T08:29:00.029Z,25.10
2022-09-09T08:30:17.448Z,25.09
2022-09-09T08:31:35.239Z,25.06
2022-09-09T08:32:54.077Z,25.02
2022-09-09T08:34:11.944Z,25.02
2022-09-09T08:35:29.828Z,25.01
2022-09-09T08:36:48.548Z,25.01
2022-09-09T08:38:10.771Z,25.00
2022-09-09T08:39:29.645Z,25.00
2022-09-09T08:40:54.479Z,25.00
2022-09-09T08:42:11.891Z,25.05
2022-09-09T08:43:30.268Z,25.08
2022-09-09T08:44:49.005Z,25.07
2022-09-09T08:46:06.543Z,25.05
2022-09-09T08:47:24.006Z,25.05
2022-09-09T08:48:43.882Z,25.07
2022-09-09T08:50:03.646Z,25.11
2022-09-09T08:51:22.306Z,25.27
2022-09-09T08:52:41.240Z,25.33
2022-09-09T08:53:59.896Z,25.53
2022-09-09T08:55:17.893Z,25.57
2022-09-09T08:56:36.878Z,25.59
2022-09-09T08:57:55.545Z,25.61
2022-09-09T08:59:18.322Z,25.63
2022-09-09T09:00:36.248Z,25.69
2022-09-09T09:01:54.149Z,25.80
2022-09-09T09:03:12.037Z,26.02
2022-09-09T09:04:30.725Z,26.08
2022-09-09T09:05:50.747Z,26.05
2022-09-09T09:07:08.699Z,26.10
2022-09-09T09:08:27.112Z,26.13
2022-09-09T09:09:46.544Z,26.13
2022-09-09T09:11:05.225Z,26.15
2022-09-09T09:12:22.221Z,26.17
2022-09-09T09:13:43.717Z,26.23
2022-09-09T09:15:02.443Z,26.32
2022-09-09T09:16:21.396Z,26.39
2022-09-09T09:17:40.615Z,26.50
2022-09-09T09:18:58.975Z,26.57
2022-09-09T09:20:16.885Z,26.66
2022-09-09T09:21:34.314Z,26.68
2022-09-09T09:22:52.656Z,26.74
2022-09-09T09:24:11.465Z,26.89
2022-09-09T09:25:29.401Z,27.22
2022-09-09T09:26:47.317Z,27.53
2022-09-09T09:28:05.227Z,27.88
2022-09-09T09:29:23.694Z,28.17
2022-09-09T09:30:42.838Z,28.33
2022-09-09T09:32:01.190Z,28.63
2022-09-09T09:33:18.666Z,28.93
2022-09-09T09:34:36.602Z,29.15
2022-09-09T09:35:54.515Z,29.08
2022-09-09T09:37:13.165Z,29.44
2022-09-09T09:41:17.592Z,29.86
2022-09-09T09:42:35.447Z,30.03
2022-09-09T09:43:53.167Z,30.24
2022-09-09T09:45:10.555Z,30.42
2022-09-09T09:46:28.569Z,30.62
2022-09-09T09:47:47.940Z,30.76
2022-09-09T09:49:05.331Z,30.92
2022-09-09T09:50:23.947Z,31.17
2022-09-09T09:51:41.904Z,31.41
2022-09-09T09:53:00.345Z,31.68
2022-09-09T09:54:18.238Z,31.92
2022-09-09T09:55:36.600Z,32.20
2022-09-09T09:56:54.641Z,32.29
2022-09-09T09:58:15.151Z,31.87
2022-09-09T09:59:42.317Z,32.08
2022-09-09T10:00:57.961Z,32.22
2022-09-09T10:02:15.861Z,31.89
2022-09-09T10:03:34.529Z,31.70
2022-09-09T10:04:52.471Z,31.62
2022-09-09T10:06:10.393Z,31.45
2022-09-09T10:07:29.752Z,31.29
2022-09-09T10:08:47.687Z,31.47
2022-09-09T10:10:05.827Z,31.59
2022-09-09T10:11:24.165Z,31.49
2022-09-09T10:12:42.871Z,31.24
2022-09-09T10:14:00.803Z,30.96
2022-09-09T10:15:18.677Z,30.75
2022-09-09T10:16:37.376Z,30.54
2022-09-09T10:17:55.378Z,30.29
2022-09-09T10:19:13.231Z,30.01
2022-09-09T10:20:31.083Z,29.71
2022-09-09T10:21:48.995Z,29.42
2022-09-09T10:23:09.980Z,29.19
2022-09-09T10:24:28.496Z,29.00
2022-09-09T10:25:46.834Z,28.86
2022-09-09T10:27:05.682Z,28.78
2022-09-09T10:28:23.570Z,28.71
2022-09-09T10:29:41.443Z,28.70
2022-09-09T10:32:51.731Z,28.83
2022-09-09T10:36:00.102Z,28.81
2022-09-09T10:37:17.932Z,29.10
2022-09-09T10:38:35.773Z,29.55
2022-09-09T10:39:53.207Z,29.74
2022-09-09T10:41:11.314Z,29.61
2022-09-09T10:42:29.172Z,30.00
2022-09-09T10:43:46.995Z,30.11
2022-09-09T10:45:04.837Z,29.85
2022-09-09T10:46:22.813Z,29.76
2022-09-09T10:47:40.990Z,29.71
2022-09-09T10:48:59.837Z,29.71
2022-09-09T10:50:19.269Z,30.17
2022-09-09T10:51:37.089Z,30.50
2022-09-09T10:52:55.221Z,31.00
2022-09-09T10:54:13.620Z,31.36
2022-09-09T10:55:31.469Z,31.66
2022-09-09T10:56:49.303Z,31.93
2022-09-09T10:58:06.945Z,31.86
2022-09-09T10:59:24.832Z,32.00
2022-09-09T11:00:42.703Z,32.11
2022-09-09T11:02:00.544Z,32.56
2022-09-09T11:03:18.373Z,32.76
2022-09-09T11:04:36.504Z,33.04
2022-09-09T11:05:54.445Z,33.19
2022-09-09T11:07:12.393Z,32.78
2022-09-09T11:08:30.211Z,32.76
2022-09-09T11:09:48.141Z,33.35
2022-09-09T11:12:56.465Z,32.64
2022-09-09T11:14:13.834Z,32.92
2022-09-09T11:15:31.680Z,32.51
2022-09-09T11:16:49.593Z,32.81
2022-09-09T11:18:07.696Z,32.81
2022-09-09T11:19:25.598Z,32.69
2022-09-09T11:20:42.946Z,33.27
2022-09-09T11:22:00.277Z,33.64
2022-09-09T11:23:18.697Z,33.93
2022-09-09T11:24:35.411Z,34.18
2022-09-09T11:25:53.763Z,34.41
2022-09-09T11:27:11.623Z,34.57
2022-09-09T11:28:29.534Z,34.63
2022-09-09T11:29:47.973Z,34.76
2022-09-09T11:31:05.684Z,34.61
2022-09-09T11:32:24.065Z,34.32
2022-09-09T11:33:41.912Z,33.90
2022-09-09T11:34:59.805Z,33.57
2022-09-09T11:36:18.125Z,33.31
2022-09-09T11:37:35.776Z,33.20
2022-09-09T11:38:54.668Z,32.86
2022-09-09T11:40:12.039Z,32.58
2022-09-09T11:41:30.426Z,32.58
2022-09-09T11:42:47.807Z,32.31
2022-09-09T11:44:05.418Z,32.10
2022-09-09T11:45:23.275Z,31.97
2022-09-09T11:46:39.725Z,32.40
2022-09-09T11:47:57.202Z,32.98
2022-09-09T11:49:15.060Z,33.34
2022-09-09T11:50:31.746Z,33.59
2022-09-09T11:51:50.103Z,33.77
2022-09-09T11:53:06.564Z,33.93
2022-09-09T11:54:23.888Z,34.01
2022-09-09T11:55:41.764Z,34.02
2022-09-09T11:56:59.114Z,34.03
2022-09-09T11:58:16.482Z,34.05
2022-09-09T11:59:33.817Z,34.11
2022-09-09T12:00:51.156Z,34.17
2022-09-09T12:02:07.872Z,34.23
2022-09-09T12:03:25.739Z,34.34
2022-09-09T12:04:43.594Z,34.46
2022-09-09T12:05:59.989Z,34.52
2022-09-09T12:07:17.820Z,34.63
2022-09-09T12:08:35.270Z,34.72
2022-09-09T12:09:52.606Z,34.76
2022-09-09T12:11:10.458Z,34.79
2022-09-09T12:12:28.716Z,34.93
2022-09-09T12:13:46.402Z,34.22
2022-09-09T12:15:04.232Z,34.07
2022-09-09T12:16:20.644Z,34.07
2022-09-09T12:17:38.525Z,34.38
2022-09-09T12:20:14.578Z,33.30
2022-09-09T12:21:32.404Z,33.51
2022-09-09T12:22:50.216Z,33.10
2022-09-09T12:24:08.068Z,32.85
2022-09-09T12:25:25.911Z,33.18
2022-09-09T12:26:44.047Z,33.26
2022-09-09T12:28:01.899Z,33.27
2022-09-09T12:29:19.722Z,32.95
2022-09-09T12:30:37.597Z,32.57
2022-09-09T12:31:55.472Z,32.41
2022-09-09T12:33:13.858Z,32.25
2022-09-09T12:34:31.711Z,32.01
2022-09-09T12:35:49.542Z,31.85
2022-09-09T12:37:07.363Z,31.79
2022-09-09T12:38:25.223Z,31.74
2022-09-09T12:39:43.372Z,31.54
2022-09-09T12:41:01.204Z,31.28
2022-09-09T12:42:19.074Z,31.02
2022-09-09T12:43:37.030Z,30.81
2022-09-09T12:44:54.384Z,30.61
2022-09-09T12:46:12.103Z,30.44
2022-09-09T12:47:30.529Z,30.34
2022-09-09T12:48:48.757Z,30.22
2022-09-09T12:50:07.120Z,30.08
2022-09-09T12:51:24.965Z,29.99
2022-09-09T12:52:41.683Z,29.91
2022-09-09T12:53:58.220Z,29.83
2022-09-09T12:55:14.629Z,29.74
2022-09-09T12:56:32.502Z,29.62
2022-09-09T12:57:50.331Z,29.48
2022-09-09T12:59:07.164Z,29.30
2022-09-09T13:00:24.969Z,29.14
2022-09-09T13:01:42.350Z,29.00
2022-09-09T13:02:58.792Z,28.91
2022-09-09T13:04:16.150Z,28.86
2022-09-09T13:05:32.815Z,28.83
2022-09-09T13:06:50.151Z,28.76
2022-09-09T13:08:08.436Z,28.69
2022-09-09T13:09:24.989Z,28.65
2022-09-09T13:11:01.851Z,28.62
2022-09-09T13:12:03.609Z,28.59
2022-09-09T13:13:20.057Z,28.56
2022-09-09T13:14:36.495Z,28.54
2022-09-09T13:15:52.866Z,28.57
2022-09-09T13:17:09.230Z,28.69
2022-09-09T13:18:25.923Z,28.80
2022-09-09T13:19:42.323Z,29.16
2022-09-09T13:20:58.728Z,29.18
2022-09-09T13:22:15.094Z,29.44
2022-09-09T13:23:31.546Z,29.35
2022-09-09T13:24:48.247Z,29.23
2022-09-09T13:26:04.697Z,29.14
2022-09-09T13:27:22.539Z,29.07
2022-09-09T13:28:38.993Z,29.01
2022-09-09T13:29:55.386Z,28.98
2022-09-09T13:31:14.101Z,28.95
2022-09-09T13:32:30.466Z,28.93
2022-09-09T13:33:46.947Z,28.89
2022-09-09T13:35:04.790Z,28.86
2022-09-09T13:36:22.219Z,28.82
2022-09-09T13:37:38.868Z,28.77
2022-09-09T13:38:55.376Z,28.72
2022-09-09T13:40:13.246Z,28.65
2022-09-09T13:41:29.662Z,28.60
2022-09-09T13:42:46.032Z,28.55
2022-09-09T13:44:02.703Z,28.49
2022-09-09T13:45:19.113Z,28.44
2022-09-09T13:46:35.548Z,28.39
2022-09-09T13:47:53.865Z,28.36
2022-09-09T13:49:11.737Z,28.35
2022-09-09T13:50:28.409Z,28.37
2022-09-09T13:51:44.868Z,28.42
2022-09-09T13:53:03.199Z,28.51
2022-09-09T13:54:21.065Z,28.77
2022-09-09T13:55:37.462Z,28.85
2022-09-09T13:56:54.706Z,29.03
2022-09-09T13:58:11.138Z,29.06
2022-09-09T13:59:47.991Z,29.08
2022-09-09T14:00:50.234Z,29.13
2022-09-09T14:02:08.593Z,29.14
2022-09-09T14:03:25.243Z,29.15
2022-09-09T14:04:41.652Z,29.20
2022-09-09T14:05:58.032Z,29.21
2022-09-09T14:07:14.479Z,29.20
2022-09-09T14:08:30.888Z,29.17
2022-09-09T14:09:48.984Z,29.15
2022-09-09T14:11:05.394Z,29.11
2022-09-09T14:12:23.250Z,29.08
2022-09-09T14:13:39.614Z,29.05
2022-09-09T14:14:57.505Z,29.07
2022-09-09T14:16:15.641Z,29.09
2022-09-09T14:17:32.043Z,29.08
2022-09-09T14:18:48.417Z,29.07
2022-09-09T14:20:06.295Z,29.02
2022-09-09T14:21:24.174Z,28.98
2022-09-09T14:22:40.865Z,28.90
2022-09-09T14:23:57.244Z,28.83
2022-09-09T14:25:15.121Z,28.77
2022-09-09T14:26:33.025Z,28.71
2022-09-09T14:27:49.428Z,28.68
2022-09-09T14:29:06.062Z,28.65
2022-09-09T14:30:22.489Z,28.63
2022-09-09T14:31:38.934Z,28.58
2022-09-09T14:32:55.314Z,28.49
2022-09-09T14:34:11.705Z,28.36
2022-09-09T14:35:28.367Z,28.23
2022-09-09T14:36:44.795Z,28.11
2022-09-09T14:38:01.195Z,28.03
2022-09-09T14:39:17.578Z,27.96
2022-09-09T14:40:35.436Z,27.88
2022-09-09T14:41:52.106Z,27.78
2022-09-09T14:43:08.524Z,27.68
2022-09-09T14:44:24.903Z,27.57
2022-09-09T14:45:41.345Z,27.48
2022-09-09T14:46:57.762Z,27.41
2022-09-09T14:48:14.412Z,27.37
2022-09-09T14:49:30.813Z,27.33
2022-09-09T14:50:47.215Z,27.28
2022-09-09T14:52:03.602Z,27.20
2022-09-09T14:53:20.007Z,27.15
2022-09-09T14:54:36.714Z,27.10
2022-09-09T14:55:53.142Z,27.03
2022-09-09T14:57:09.517Z,26.98
2022-09-09T14:58:28.319Z,26.97
2022-09-09T14:59:48.245Z,27.02
2022-09-09T15:01:04.914Z,27.12
2022-09-09T15:02:21.371Z,27.27
2022-09-09T15:03:39.237Z,27.39
2022-09-09T15:04:55.631Z,27.51
2022-09-09T15:06:12.004Z,27.62
2022-09-09T15:07:28.692Z,27.61
2022-09-09T15:08:45.091Z,27.62
2022-09-09T15:10:01.541Z,27.67
2022-09-09T15:11:17.941Z,27.80
2022-09-09T15:12:34.348Z,27.82
2022-09-09T15:13:51.009Z,27.85
2022-09-09T15:15:07.403Z,27.89
2022-09-09T15:16:23.851Z,27.94
2022-09-09T15:17:42.241Z,27.97
2022-09-09T15:18:58.647Z,27.99
2022-09-09T15:20:15.315Z,28.03
2022-09-09T15:21:31.706Z,28.06
2022-09-09T15:22:49.552Z,28.07
2022-09-09T15:24:05.971Z,28.06
2022-09-09T15:25:22.373Z,28.04
2022-09-09T15:26:39.013Z,28.00
2022-09-09T15:27:55.396Z,27.94
2022-09-09T15:29:11.797Z,27.80
2022-09-09T15:30:28.180Z,27.67
2022-09-09T15:31:44.554Z,27.53
2022-09-09T15:33:01.239Z,27.41
2022-09-09T15:34:19.581Z,27.32
2022-09-09T15:35:36.007Z,27.25
2022-09-09T15:36:52.360Z,27.18
2022-09-09T15:38:08.751Z,27.07
2022-09-09T15:39:25.462Z,27.00
2022-09-09T15:40:41.884Z,26.95
2022-09-09T15:41:59.727Z,26.92
2022-09-09T15:43:17.583Z,26.87
2022-09-09T15:44:33.995Z,26.79
2022-09-09T15:45:50.703Z,26.73
2022-09-09T15:47:07.076Z,26.69
2022-09-09T15:48:23.469Z,26.63
2022-09-09T15:49:39.878Z,26.54
2022-09-09T15:50:56.267Z,26.47
2022-09-09T15:52:12.929Z,26.38
2022-09-09T15:53:29.346Z,26.29
2022-09-09T15:54:45.728Z,26.17
2022-09-09T15:56:02.102Z,26.05
2022-09-09T15:57:19.960Z,25.95
2022-09-09T15:58:36.641Z,25.85
2022-09-09T15:59:53.030Z,25.73
2022-09-09T16:01:09.410Z,25.65
2022-09-09T16:02:25.986Z,25.56
2022-09-09T16:03:45.609Z,25.48
2022-09-09T16:05:02.447Z,25.40
2022-09-09T16:06:18.842Z,25.32
2022-09-09T16:07:36.744Z,25.22
2022-09-09T16:08:53.128Z,25.16
2022-09-09T16:10:09.504Z,25.08
2022-09-09T16:11:26.203Z,25.02
2022-09-09T16:12:42.576Z,24.93
2022-09-09T16:13:58.969Z,24.84
2022-09-09T16:15:16.786Z,24.77
2022-09-09T16:16:33.216Z,24.70
2022-09-09T16:17:49.614Z,24.62
2022-09-09T16:19:07.483Z,24.55
2022-09-09T16:20:23.807Z,24.46
2022-09-09T16:21:41.717Z,24.37
2022-09-09T16:22:58.379Z,24.30
2022-09-09T16:24:14.793Z,24.20
2022-09-09T16:25:32.604Z,24.15
2022-09-09T16:26:50.542Z,24.07
2022-09-09T16:28:06.945Z,24.00
2022-09-09T16:29:23.591Z,23.94
2022-09-09T16:30:40.002Z,23.86
2022-09-09T16:32:01.180Z,23.81
2022-09-09T16:33:17.632Z,23.74
2022-09-09T16:34:35.484Z,23.70
2022-09-09T16:35:52.150Z,23.63
2022-09-09T16:37:10.899Z,23.58
2022-09-09T16:38:27.225Z,23.54
2022-09-09T16:39:43.635Z,23.50
2022-09-09T16:41:00.087Z,23.46
2022-09-09T16:42:16.735Z,23.44
2022-09-09T16:43:33.125Z,23.42
2022-09-09T16:44:49.493Z,23.38
2022-09-09T16:46:05.950Z,23.36
2022-09-09T16:47:23.776Z,23.32
2022-09-09T16:48:40.450Z,23.29
2022-09-09T16:49:57.671Z,23.24